sensor_id;sensor_type;location;lat;lon;timestamp;pressure;altitude;pressure_sealevel;temperature;humidity
43824;BME280;29470;53.550;9.926;2023-04-01T00:04:06;99090.97;;;16.71;68.99
43824;BME280;29470;53.550;9.926;2023-04-01T00:09:09;99097.66;;;16.56;70.01
43824;BME280;29470;53.550;9.926;2023-04-01T00:14:13;99094.81;;;16.42;69.83
43824;BME280;29470;53.550;9.926;2023-04-01T00:19:16;99090.91;;;16.22;71.57
43824;BME280;29470;53.550;9.926;2023-04-01T00:24:18;99093.47;;;16.64;69.44
43824;BME280;29470;53.550;9.926;2023-04-01T00:29:22;99093.28;;;16.55;69.12
43824;BME280;29470;53.550;9.926;2023-04-01T00:34:30;99096.22;;;16.72;69.19
43824;BME280;29470;53.550;9.926;2023-04-01T00:39:34;99089.03;;;16.60;70.19
43824;BME280;29470;53.550;9.926;2023-04-01T00:44:39;99099.59;;;16.22;71.08
43824;BME280;29470;53.550;9.926;2023-04-01T00:49:45;99083.41;;;16.39;69.11
43824;BME280;29470;53.550;9.926;2023-04-01T00:54:52;99088.25;;;16.20;71.54
43824;BME280;29470;53.550;9.926;2023-04-01T00:59:59;99089.25;;;15.84;73.24
43824;BME280;29470;53.550;9.926;2023-04-01T01:05:03;99087.09;;;15.64;73.54
43824;BME280;29470;53.550;9.926;2023-04-01T01:10:12;99095.25;;;15.80;72.75
43824;BME280;29470;53.550;9.926;2023-04-01T01:15:21;99093.84;;;15.56;74.06
43824;BME280;29470;53.550;9.926;2023-04-01T01:26:11;99090.47;;;16.00;71.82
43824;BME280;29470;53.550;9.926;2023-04-01T01:31:23;99102.88;;;16.12;71.26
43824;BME280;29470;53.550;9.926;2023-04-01T01:36:31;99107.03;;;16.02;72.26
43824;BME280;29470;53.550;9.926;2023-04-01T01:41:39;99104.94;;;16.27;69.87
43824;BME280;29470;53.550;9.926;2023-04-01T01:46:45;99098.63;;;16.15;70.97
43824;BME280;29470;53.550;9.926;2023-04-01T01:51:49;99107.22;;;16.11;71.70
43824;BME280;29470;53.550;9.926;2023-04-01T01:57:05;99106.78;;;16.32;70.23
43824;BME280;29470;53.550;9.926;2023-04-01T02:02:11;99109.59;;;16.00;71.82
43824;BME280;29470;53.550;9.926;2023-04-01T02:07:20;99116.78;;;16.11;70.78
43824;BME280;29470;53.550;9.926;2023-04-01T02:12:24;99115.19;;;16.19;70.41
43824;BME280;29470;53.550;9.926;2023-04-01T02:17:29;99121.47;;;15.49;73.23
43824;BME280;29470;53.550;9.926;2023-04-01T02:22:40;99110.50;;;16.02;70.62
43824;BME280;29470;53.550;9.926;2023-04-01T02:27:45;99114.22;;;16.12;70.00
43824;BME280;29470;53.550;9.926;2023-04-01T02:32:49;99119.22;;;16.46;69.55
43824;BME280;29470;53.550;9.926;2023-04-01T02:37:54;99119.13;;;16.41;69.63
43824;BME280;29470;53.550;9.926;2023-04-01T02:42:57;99125.03;;;15.91;71.75
43824;BME280;29470;53.550;9.926;2023-04-01T02:48:00;99129.03;;;16.15;70.69
43824;BME280;29470;53.550;9.926;2023-04-01T02:53:04;99126.84;;;15.94;71.43
43824;BME280;29470;53.550;9.926;2023-04-01T02:58:07;99140.78;;;15.57;74.41
43824;BME280;29470;53.550;9.926;2023-04-01T03:03:11;99140.13;;;15.29;75.03
43824;BME280;29470;53.550;9.926;2023-04-01T03:08:16;99148.03;;;14.97;77.55
43824;BME280;29470;53.550;9.926;2023-04-01T03:13:19;99149.97;;;15.41;75.43
43824;BME280;29470;53.550;9.926;2023-04-01T03:18:22;99148.13;;;15.74;73.28
43824;BME280;29470;53.550;9.926;2023-04-01T03:23:26;99152.91;;;15.20;75.56
43824;BME280;29470;53.550;9.926;2023-04-01T03:28:29;99153.13;;;15.28;75.92
43824;BME280;29470;53.550;9.926;2023-04-01T03:33:32;99156.13;;;15.45;75.11
43824;BME280;29470;53.550;9.926;2023-04-01T03:38:36;99158.94;;;15.54;74.04
43824;BME280;29470;53.550;9.926;2023-04-01T03:43:39;99155.44;;;15.52;75.17
43824;BME280;29470;53.550;9.926;2023-04-01T03:48:42;99162.72;;;15.30;75.55
43824;BME280;29470;53.550;9.926;2023-04-01T03:53:46;99167.53;;;15.50;73.66
43824;BME280;29470;53.550;9.926;2023-04-01T03:58:49;99171.06;;;15.52;74.17
43824;BME280;29470;53.550;9.926;2023-04-01T04:03:52;99173.13;;;15.66;73.09
43824;BME280;29470;53.550;9.926;2023-04-01T04:08:59;99173.69;;;15.89;71.71
43824;BME280;29470;53.550;9.926;2023-04-01T04:14:04;99174.25;;;16.15;71.46
43824;BME280;29470;53.550;9.926;2023-04-01T04:19:07;99177.31;;;15.59;72.96
43824;BME280;29470;53.550;9.926;2023-04-01T04:24:11;99185.44;;;15.71;72.97
43824;BME280;29470;53.550;9.926;2023-04-01T04:29:32;99187.63;;;15.54;73.53
43824;BME280;29470;53.550;9.926;2023-04-01T04:34:36;99192.66;;;15.46;74.41
43824;BME280;29470;53.550;9.926;2023-04-01T04:39:40;99202.53;;;15.25;75.12
43824;BME280;29470;53.550;9.926;2023-04-01T04:44:43;99208.28;;;15.46;74.16
43824;BME280;29470;53.550;9.926;2023-04-01T04:49:46;99215.72;;;15.32;75.18
43824;BME280;29470;53.550;9.926;2023-04-01T04:54:50;99212.06;;;15.24;75.94
43824;BME280;29470;53.550;9.926;2023-04-01T04:59:53;99219.84;;;15.23;76.42
43824;BME280;29470;53.550;9.926;2023-04-01T05:05:25;99226.22;;;15.34;76.19
43824;BME280;29470;53.550;9.926;2023-04-01T05:10:29;99224.09;;;15.54;76.02
43824;BME280;29470;53.550;9.926;2023-04-01T05:15:33;99224.41;;;14.98;76.62
43824;BME280;29470;53.550;9.926;2023-04-01T05:20:36;99237.53;;;15.02;76.52
43824;BME280;29470;53.550;9.926;2023-04-01T05:25:40;99240.59;;;14.87;78.48
43824;BME280;29470;53.550;9.926;2023-04-01T05:30:44;99243.97;;;15.17;77.27
43824;BME280;29470;53.550;9.926;2023-04-01T05:36:06;99250.00;;;15.48;75.85
43824;BME280;29470;53.550;9.926;2023-04-01T05:41:10;99256.44;;;15.63;74.72
43824;BME280;29470;53.550;9.926;2023-04-01T05:46:16;99267.72;;;14.96;73.84
43824;BME280;29470;53.550;9.926;2023-04-01T05:51:25;99273.41;;;14.53;73.10
43824;BME280;29470;53.550;9.926;2023-04-01T05:56:29;99284.56;;;13.65;75.46
43824;BME280;29470;53.550;9.926;2023-04-01T06:01:33;99294.47;;;13.77;76.44
43824;BME280;29470;53.550;9.926;2023-04-01T06:06:36;99299.97;;;13.87;74.82
43824;BME280;29470;53.550;9.926;2023-04-01T06:11:55;99310.44;;;13.88;75.06
43824;BME280;29470;53.550;9.926;2023-04-01T06:17:19;99308.09;;;13.20;76.08
43824;BME280;29470;53.550;9.926;2023-04-01T06:22:55;99320.72;;;13.10;75.36
43824;BME280;29470;53.550;9.926;2023-04-01T06:33:52;99332.25;;;13.17;74.33
43824;BME280;29470;53.550;9.926;2023-04-01T06:39:11;99350.66;;;12.32;76.43
43824;BME280;29470;53.550;9.926;2023-04-01T06:44:23;99365.44;;;12.56;76.70
43824;BME280;29470;53.550;9.926;2023-04-01T06:49:56;99361.56;;;12.92;74.25
43824;BME280;29470;53.550;9.926;2023-04-01T06:55:23;99374.41;;;12.20;77.58
43824;BME280;29470;53.550;9.926;2023-04-01T07:00:54;99388.19;;;11.59;77.98
43824;BME280;29470;53.550;9.926;2023-04-01T07:06:02;99381.69;;;13.20;72.60
43824;BME280;29470;53.550;9.926;2023-04-01T07:11:11;99393.88;;;12.32;73.42
43824;BME280;29470;53.550;9.926;2023-04-01T07:16:41;99415.44;;;12.98;71.75
43824;BME280;29470;53.550;9.926;2023-04-01T07:21:48;99415.41;;;12.52;74.02
43824;BME280;29470;53.550;9.926;2023-04-01T07:27:01;99431.25;;;11.76;75.54
43824;BME280;29470;53.550;9.926;2023-04-01T07:32:17;99436.00;;;12.06;74.37
43824;BME280;29470;53.550;9.926;2023-04-01T07:37:28;99444.38;;;12.20;72.58
43824;BME280;29470;53.550;9.926;2023-04-01T07:42:42;99448.78;;;11.82;73.39
43824;BME280;29470;53.550;9.926;2023-04-01T07:48:01;99458.59;;;11.89;73.55
43824;BME280;29470;53.550;9.926;2023-04-01T07:53:15;99475.91;;;11.51;75.53
43824;BME280;29470;53.550;9.926;2023-04-01T07:58:31;99492.59;;;11.38;75.60
43824;BME280;29470;53.550;9.926;2023-04-01T08:03:55;99500.78;;;11.10;76.02
43824;BME280;29470;53.550;9.926;2023-04-01T08:09:06;99498.59;;;11.57;75.33
43824;BME280;29470;53.550;9.926;2023-04-01T08:14:55;99512.47;;;11.01;76.43
43824;BME280;29470;53.550;9.926;2023-04-01T08:20:26;99520.94;;;12.12;72.54
43824;BME280;29470;53.550;9.926;2023-04-01T08:25:32;99522.09;;;11.42;75.15
43824;BME280;29470;53.550;9.926;2023-04-01T08:30:40;99533.75;;;12.50;70.94
43824;BME280;29470;53.550;9.926;2023-04-01T08:35:51;99537.66;;;11.05;73.63
43824;BME280;29470;53.550;9.926;2023-04-01T08:41:13;99547.84;;;11.39;74.11
43824;BME280;29470;53.550;9.926;2023-04-01T08:47:16;99575.06;;;10.94;76.07
43824;BME280;29470;53.550;9.926;2023-04-01T08:52:32;99574.91;;;10.91;74.98
43824;BME280;29470;53.550;9.926;2023-04-01T08:57:46;99578.38;;;11.84;70.80
43824;BME280;29470;53.550;9.926;2023-04-01T09:03:56;99575.97;;;11.69;71.07
43824;BME280;29470;53.550;9.926;2023-04-01T09:20:38;99596.47;;;11.08;73.09
43824;BME280;29470;53.550;9.926;2023-04-01T09:25:58;99609.66;;;11.50;72.15
43824;BME280;29470;53.550;9.926;2023-04-01T09:31:20;99618.47;;;11.54;72.04
43824;BME280;29470;53.550;9.926;2023-04-01T09:36:58;99627.88;;;11.90;70.12
43824;BME280;29470;53.550;9.926;2023-04-01T09:42:16;99648.47;;;12.05;67.64
43824;BME280;29470;53.550;9.926;2023-04-01T09:47:50;99639.91;;;11.52;70.05
43824;BME280;29470;53.550;9.926;2023-04-01T09:53:11;99657.94;;;12.04;69.96
43824;BME280;29470;53.550;9.926;2023-04-01T09:58:57;99661.50;;;11.16;70.24
43824;BME280;29470;53.550;9.926;2023-04-01T10:04:59;99671.63;;;11.84;69.19
43824;BME280;29470;53.550;9.926;2023-04-01T10:10:39;99676.59;;;11.61;67.91
43824;BME280;29470;53.550;9.926;2023-04-01T10:16:16;99672.97;;;11.75;68.51
43824;BME280;29470;53.550;9.926;2023-04-01T10:21:54;99684.72;;;12.43;68.39
43824;BME280;29470;53.550;9.926;2023-04-01T10:27:18;99695.53;;;12.73;66.22
43824;BME280;29470;53.550;9.926;2023-04-01T10:33:20;99707.38;;;11.91;69.66
43824;BME280;29470;53.550;9.926;2023-04-01T10:50:24;99715.09;;;12.07;67.96
43824;BME280;29470;53.550;9.926;2023-04-01T10:56:01;99727.91;;;12.22;67.09
43824;BME280;29470;53.550;9.926;2023-04-01T11:01:57;99741.00;;;12.07;67.75
43824;BME280;29470;53.550;9.926;2023-04-01T11:08:18;99754.47;;;12.56;66.62
43824;BME280;29470;53.550;9.926;2023-04-01T11:13:54;99754.38;;;12.55;66.22
43824;BME280;29470;53.550;9.926;2023-04-01T11:19:20;99759.78;;;11.49;69.61
43824;BME280;29470;53.550;9.926;2023-04-01T11:24:54;99767.75;;;11.54;70.67
43824;BME280;29470;53.550;9.926;2023-04-01T11:30:26;99783.22;;;11.34;72.24
43824;BME280;29470;53.550;9.926;2023-04-01T11:41:26;99803.94;;;11.34;70.76
43824;BME280;29470;53.550;9.926;2023-04-01T11:47:03;99790.72;;;11.64;69.48
43824;BME280;29470;53.550;9.926;2023-04-01T11:52:21;99804.31;;;11.94;68.79
43824;BME280;29470;53.550;9.926;2023-04-01T11:57:49;99820.13;;;12.17;67.93
43824;BME280;29470;53.550;9.926;2023-04-01T12:03:08;99838.72;;;11.06;70.09
43824;BME280;29470;53.550;9.926;2023-04-01T12:08:27;99851.56;;;11.04;69.55
43824;BME280;29470;53.550;9.926;2023-04-01T12:13:41;99858.13;;;11.31;68.72
43824;BME280;29470;53.550;9.926;2023-04-01T12:18:51;99866.22;;;11.04;69.03
43824;BME280;29470;53.550;9.926;2023-04-01T12:24:22;99870.97;;;11.13;69.35
43824;BME280;29470;53.550;9.926;2023-04-01T12:29:48;99880.03;;;11.21;67.88
43824;BME280;29470;53.550;9.926;2023-04-01T12:35:04;99884.88;;;11.48;67.38
43824;BME280;29470;53.550;9.926;2023-04-01T12:40:54;99891.28;;;11.22;67.66
43824;BME280;29470;53.550;9.926;2023-04-01T12:46:12;99902.78;;;11.10;67.31
43824;BME280;29470;53.550;9.926;2023-04-01T12:51:28;99908.88;;;10.48;70.24
43824;BME280;29470;53.550;9.926;2023-04-01T12:56:40;99923.16;;;11.04;68.39
43824;BME280;29470;53.550;9.926;2023-04-01T13:02:01;99923.53;;;10.95;67.84
43824;BME280;29470;53.550;9.926;2023-04-01T13:07:22;99938.13;;;11.43;66.20
43824;BME280;29470;53.550;9.926;2023-04-01T13:12:44;99947.94;;;11.00;67.60
43824;BME280;29470;53.550;9.926;2023-04-01T13:18:00;99955.84;;;11.52;66.15
43824;BME280;29470;53.550;9.926;2023-04-01T13:23:14;99967.13;;;11.04;67.31
43824;BME280;29470;53.550;9.926;2023-04-01T13:28:24;99976.97;;;11.59;66.04
43824;BME280;29470;53.550;9.926;2023-04-01T13:33:36;99983.72;;;10.16;69.82
43824;BME280;29470;53.550;9.926;2023-04-01T13:38:57;100001.81;;;10.31;68.92
43824;BME280;29470;53.550;9.926;2023-04-01T13:44:11;99998.50;;;10.79;65.08
43824;BME280;29470;53.550;9.926;2023-04-01T13:55:10;100020.22;;;10.97;64.04
43824;BME280;29470;53.550;9.926;2023-04-01T14:00:30;100025.59;;;11.65;62.16
43824;BME280;29470;53.550;9.926;2023-04-01T14:05:47;100026.88;;;10.62;65.61
43824;BME280;29470;53.550;9.926;2023-04-01T14:11:07;100044.47;;;11.14;64.75
43824;BME280;29470;53.550;9.926;2023-04-01T14:16:31;100047.56;;;10.62;65.34
43824;BME280;29470;53.550;9.926;2023-04-01T14:21:41;100048.53;;;10.79;64.94
43824;BME280;29470;53.550;9.926;2023-04-01T14:27:09;100065.41;;;11.34;63.64
43824;BME280;29470;53.550;9.926;2023-04-01T14:32:23;100067.31;;;11.22;62.13
43824;BME280;29470;53.550;9.926;2023-04-01T14:38:09;100073.38;;;11.22;62.43
43824;BME280;29470;53.550;9.926;2023-04-01T14:48:57;100100.72;;;10.72;63.57
43824;BME280;29470;53.550;9.926;2023-04-01T14:54:06;100108.13;;;9.94;67.47
43824;BME280;29470;53.550;9.926;2023-04-01T14:59:25;100114.97;;;9.51;70.78
43824;BME280;29470;53.550;9.926;2023-04-01T15:04:45;100122.28;;;9.72;71.58
43824;BME280;29470;53.550;9.926;2023-04-01T15:09:55;100128.31;;;9.86;72.39
43824;BME280;29470;53.550;9.926;2023-04-01T15:15:19;100137.88;;;9.73;73.12
43824;BME280;29470;53.550;9.926;2023-04-01T15:20:36;100139.25;;;9.82;71.79
43824;BME280;29470;53.550;9.926;2023-04-01T15:26:05;100155.72;;;10.26;71.18
43824;BME280;29470;53.550;9.926;2023-04-01T15:31:13;100183.47;;;9.73;73.33
43824;BME280;29470;53.550;9.926;2023-04-01T15:36:27;100177.34;;;9.99;72.28
43824;BME280;29470;53.550;9.926;2023-04-01T15:41:38;100191.59;;;9.93;73.59
43824;BME280;29470;53.550;9.926;2023-04-01T15:46:47;100193.22;;;9.77;73.64
43824;BME280;29470;53.550;9.926;2023-04-01T15:52:01;100198.66;;;9.82;73.18
43824;BME280;29470;53.550;9.926;2023-04-01T15:57:25;100205.66;;;10.53;71.64
43824;BME280;29470;53.550;9.926;2023-04-01T16:02:35;100220.88;;;8.99;74.62
43824;BME280;29470;53.550;9.926;2023-04-01T16:07:52;100238.91;;;9.51;74.41
43824;BME280;29470;53.550;9.926;2023-04-01T16:13:04;100244.44;;;9.31;72.57
43824;BME280;29470;53.550;9.926;2023-04-01T16:18:37;100252.53;;;9.10;73.80
43824;BME280;29470;53.550;9.926;2023-04-01T16:23:47;100265.66;;;9.26;72.85
43824;BME280;29470;53.550;9.926;2023-04-01T16:28:55;100271.81;;;9.28;73.33
43824;BME280;29470;53.550;9.926;2023-04-01T16:34:07;100273.69;;;9.18;73.24
43824;BME280;29470;53.550;9.926;2023-04-01T16:39:27;100299.91;;;9.24;71.55
43824;BME280;29470;53.550;9.926;2023-04-01T16:44:46;100302.97;;;9.18;72.32
43824;BME280;29470;53.550;9.926;2023-04-01T16:49:56;100324.50;;;8.68;73.52
43824;BME280;29470;53.550;9.926;2023-04-01T16:55:03;100335.97;;;8.85;72.83
43824;BME280;29470;53.550;9.926;2023-04-01T17:00:18;100341.03;;;9.34;72.02
43824;BME280;29470;53.550;9.926;2023-04-01T17:05:39;100350.34;;;8.81;73.48
43824;BME280;29470;53.550;9.926;2023-04-01T17:10:51;100370.53;;;9.12;70.95
43824;BME280;29470;53.550;9.926;2023-04-01T17:16:10;100386.81;;;8.99;71.03
43824;BME280;29470;53.550;9.926;2023-04-01T17:21:24;100389.41;;;9.50;69.04
43824;BME280;29470;53.550;9.926;2023-04-01T17:26:32;100406.31;;;8.59;69.97
43824;BME280;29470;53.550;9.926;2023-04-01T17:31:45;100415.13;;;9.23;67.80
43824;BME280;29470;53.550;9.926;2023-04-01T17:37:02;100425.25;;;8.47;68.50
43824;BME280;29470;53.550;9.926;2023-04-01T17:42:11;100431.63;;;9.25;65.08
43824;BME280;29470;53.550;9.926;2023-04-01T17:47:36;100449.66;;;8.88;64.70
43824;BME280;29470;53.550;9.926;2023-04-01T17:52:46;100459.75;;;8.97;64.76
43824;BME280;29470;53.550;9.926;2023-04-01T17:57:55;100466.72;;;8.74;65.98
43824;BME280;29470;53.550;9.926;2023-04-01T18:03:13;100481.16;;;8.96;65.20
43824;BME280;29470;53.550;9.926;2023-04-01T18:08:32;100487.16;;;9.20;64.67
43824;BME280;29470;53.550;9.926;2023-04-01T18:19:32;100527.50;;;8.59;65.20
43824;BME280;29470;53.550;9.926;2023-04-01T18:24:44;100542.66;;;8.20;64.74
43824;BME280;29470;53.550;9.926;2023-04-01T18:29:50;100546.66;;;8.50;63.83
43824;BME280;29470;53.550;9.926;2023-04-01T18:35:00;100554.34;;;8.38;63.48
43824;BME280;29470;53.550;9.926;2023-04-01T18:40:17;100564.94;;;8.65;63.08
43824;BME280;29470;53.550;9.926;2023-04-01T18:45:27;100583.94;;;8.44;62.02
43824;BME280;29470;53.550;9.926;2023-04-01T18:50:41;100595.75;;;8.18;62.44
43824;BME280;29470;53.550;9.926;2023-04-01T18:55:51;100613.25;;;8.34;62.23
43824;BME280;29470;53.550;9.926;2023-04-01T19:01:13;100632.28;;;7.57;64.14
43824;BME280;29470;53.550;9.926;2023-04-01T19:06:22;100630.31;;;8.09;62.49
43824;BME280;29470;53.550;9.926;2023-04-01T19:11:34;100636.34;;;8.32;60.27
43824;BME280;29470;53.550;9.926;2023-04-01T19:16:49;100655.31;;;8.45;60.20
43824;BME280;29470;53.550;9.926;2023-04-01T19:22:36;100663.84;;;9.02;58.35
43824;BME280;29470;53.550;9.926;2023-04-01T19:27:48;100669.78;;;8.77;58.71
43824;BME280;29470;53.550;9.926;2023-04-01T19:32:57;100672.84;;;9.07;58.19
43824;BME280;29470;53.550;9.926;2023-04-01T19:38:08;100669.16;;;9.51;56.49
43824;BME280;29470;53.550;9.926;2023-04-01T19:43:23;100688.56;;;9.22;56.50
43824;BME280;29470;53.550;9.926;2023-04-01T19:48:43;100708.56;;;8.78;56.72
43824;BME280;29470;53.550;9.926;2023-04-01T19:53:52;100721.84;;;8.61;56.72
43824;BME280;29470;53.550;9.926;2023-04-01T19:59:08;100726.53;;;8.54;56.78
43824;BME280;29470;53.550;9.926;2023-04-01T20:04:15;100739.63;;;8.13;56.48
43824;BME280;29470;53.550;9.926;2023-04-01T20:09:35;100757.56;;;8.11;55.38
43824;BME280;29470;53.550;9.926;2023-04-01T20:14:45;100760.41;;;7.82;54.61
43824;BME280;29470;53.550;9.926;2023-04-01T20:19:55;100785.75;;;7.77;54.98
43824;BME280;29470;53.550;9.926;2023-04-01T20:25:05;100788.31;;;7.24;56.57
43824;BME280;29470;53.550;9.926;2023-04-01T20:30:49;100805.09;;;7.62;55.15
43824;BME280;29470;53.550;9.926;2023-04-01T20:36:06;100821.75;;;7.34;55.61
43824;BME280;29470;53.550;9.926;2023-04-01T20:41:11;100828.50;;;7.75;55.48
43824;BME280;29470;53.550;9.926;2023-04-01T20:46:20;100824.81;;;7.51;56.28
43824;BME280;29470;53.550;9.926;2023-04-01T20:51:26;100834.88;;;7.37;56.23
43824;BME280;29470;53.550;9.926;2023-04-01T20:56:40;100854.28;;;7.44;56.01
43824;BME280;29470;53.550;9.926;2023-04-01T21:01:55;100862.63;;;7.11;56.38
43824;BME280;29470;53.550;9.926;2023-04-01T21:07:08;100876.00;;;7.06;56.28
43824;BME280;29470;53.550;9.926;2023-04-01T21:12:23;100883.91;;;6.78;55.99
43824;BME280;29470;53.550;9.926;2023-04-01T21:17:40;100897.84;;;6.51;56.99
43824;BME280;29470;53.550;9.926;2023-04-01T21:22:53;100902.72;;;6.48;56.46
43824;BME280;29470;53.550;9.926;2023-04-01T21:28:11;100903.53;;;7.07;55.41
43824;BME280;29470;53.550;9.926;2023-04-01T21:33:33;100909.44;;;6.56;56.28
43824;BME280;29470;53.550;9.926;2023-04-01T21:38:51;100919.81;;;6.58;56.45
43824;BME280;29470;53.550;9.926;2023-04-01T21:44:17;100925.59;;;6.55;55.94
43824;BME280;29470;53.550;9.926;2023-04-01T21:49:42;100935.47;;;6.80;56.08
43824;BME280;29470;53.550;9.926;2023-04-01T22:00:37;100959.56;;;6.42;57.15
43824;BME280;29470;53.550;9.926;2023-04-01T22:05:46;100969.78;;;6.81;56.85
43824;BME280;29470;53.550;9.926;2023-04-01T22:11:00;100981.66;;;6.40;57.69
43824;BME280;29470;53.550;9.926;2023-04-01T22:16:09;100992.53;;;5.99;58.89
43824;BME280;29470;53.550;9.926;2023-04-01T22:21:22;100995.28;;;6.20;57.79
43824;BME280;29470;53.550;9.926;2023-04-01T22:26:32;100998.88;;;6.41;56.69
43824;BME280;29470;53.550;9.926;2023-04-01T22:31:42;101012.50;;;6.21;57.16
43824;BME280;29470;53.550;9.926;2023-04-01T22:36:54;101026.38;;;6.23;57.36
43824;BME280;29470;53.550;9.926;2023-04-01T22:42:06;101032.78;;;6.56;56.71
43824;BME280;29470;53.550;9.926;2023-04-01T22:47:19;101045.53;;;6.08;57.39
43824;BME280;29470;53.550;9.926;2023-04-01T22:52:31;101050.00;;;6.19;56.78
43824;BME280;29470;53.550;9.926;2023-04-01T22:57:42;101063.75;;;5.83;57.66
43824;BME280;29470;53.550;9.926;2023-04-01T23:03:00;101061.28;;;6.02;57.59
43824;BME280;29470;53.550;9.926;2023-04-01T23:08:41;101071.63;;;5.84;58.86
43824;BME280;29470;53.550;9.926;2023-04-01T23:13:50;101086.97;;;5.56;59.29
43824;BME280;29470;53.550;9.926;2023-04-01T23:18:58;101089.50;;;5.65;57.94
43824;BME280;29470;53.550;9.926;2023-04-01T23:24:14;101093.53;;;6.17;57.25
43824;BME280;29470;53.550;9.926;2023-04-01T23:29:20;101111.28;;;5.97;58.39
43824;BME280;29470;53.550;9.926;2023-04-01T23:34:30;101115.00;;;5.27;59.83
43824;BME280;29470;53.550;9.926;2023-04-01T23:39:37;101125.25;;;5.72;58.26
43824;BME280;29470;53.550;9.926;2023-04-01T23:44:41;101133.00;;;5.55;59.19
43824;BME280;29470;53.550;9.926;2023-04-01T23:49:47;101140.53;;;6.08;57.21
43824;BME280;29470;53.550;9.926;2023-04-01T23:54:55;101143.78;;;5.87;57.02
